Locust Valley, New York
Current Conditions -  °F | °C
As of 7:53 AM on Tuesday 21 Oct 2014 (Local Time) from KFRG Reporting Station
Broken Clouds Broken Clouds  
Wind Chill: 53°   Ceiling: 11000
Heat Index: 53°   Visibility: 10mi
Dew Point: 48°   Wind: 3mph
Humidity: 83%   Direction: 50°NE
Pressure: 29.91"   Gusts: NA
Location:  40.88°N, 73.6°W
Report Text: KFRG 211153Z 05003KT 10SM SCT050 BKN110 12/09 A2991 RMK AO2 SLP129 T01170089 10117 20106 53002
Loading
Personal Weather Stations






























Interactive Weather Map
Tropical Storm Tracking
New forecast layout! Learn more

10-Day Weather Forecast

Advertisements
Track Severe Weather on mobile